sensor_id;sensor_type;location;lat;lon;timestamp;pressure;altitude;pressure_sealevel;temperature;humidity
2178;BME280;1095;50.992;6.798;2023-03-04T00:01:37;101823.38;;;2.27;99.26
2178;BME280;1095;50.992;6.798;2023-03-04T00:04:04;101814.88;;;2.25;99.76
2178;BME280;1095;50.992;6.798;2023-03-04T00:06:31;101802.72;;;2.27;99.36
2178;BME280;1095;50.992;6.798;2023-03-04T00:08:57;101813.19;;;2.24;99.71
2178;BME280;1095;50.992;6.798;2023-03-04T00:11:24;101820.81;;;2.27;100.00
2178;BME280;1095;50.992;6.798;2023-03-04T00:13:51;101816.53;;;2.26;99.59
2178;BME280;1095;50.992;6.798;2023-03-04T00:16:17;101821.56;;;2.29;99.63
2178;BME280;1095;50.992;6.798;2023-03-04T00:18:46;101821.56;;;2.29;99.83
2178;BME280;1095;50.992;6.798;2023-03-04T00:21:12;101813.53;;;2.36;99.64
2178;BME280;1095;50.992;6.798;2023-03-04T00:23:39;101818.59;;;2.37;99.58
2178;BME280;1095;50.992;6.798;2023-03-04T00:26:08;101815.28;;;2.35;99.42
2178;BME280;1095;50.992;6.798;2023-03-04T00:28:34;101804.94;;;2.35;99.71
2178;BME280;1095;50.992;6.798;2023-03-04T00:31:01;101817.09;;;2.33;99.70
2178;BME280;1095;50.992;6.798;2023-03-04T00:33:28;101811.16;;;2.31;100.00
2178;BME280;1095;50.992;6.798;2023-03-04T00:35:56;101813.59;;;2.34;100.00
2178;BME280;1095;50.992;6.798;2023-03-04T00:38:23;101806.97;;;2.28;100.00
2178;BME280;1095;50.992;6.798;2023-03-04T00:40:50;101810.19;;;2.33;100.00
2178;BME280;1095;50.992;6.798;2023-03-04T00:43:16;101808.94;;;2.41;100.00
2178;BME280;1095;50.992;6.798;2023-03-04T00:45:43;101810.09;;;2.35;99.88
2178;BME280;1095;50.992;6.798;2023-03-04T00:48:10;101795.13;;;2.42;100.00
2178;BME280;1095;50.992;6.798;2023-03-04T00:50:37;101800.44;;;2.39;100.00
2178;BME280;1095;50.992;6.798;2023-03-04T00:53:05;101795.13;;;2.42;100.00
2178;BME280;1095;50.992;6.798;2023-03-04T00:55:31;101791.91;;;2.37;100.00
2178;BME280;1095;50.992;6.798;2023-03-04T00:57:58;101787.28;;;2.43;100.00
2178;BME280;1095;50.992;6.798;2023-03-04T01:00:25;101776.41;;;2.37;99.62
2178;BME280;1095;50.992;6.798;2023-03-04T01:02:51;101793.00;;;2.50;99.68
2178;BME280;1095;50.992;6.798;2023-03-04T01:05:18;101787.91;;;2.48;99.62
2178;BME280;1095;50.992;6.798;2023-03-04T01:07:44;101781.97;;;2.46;99.42
2178;BME280;1095;50.992;6.798;2023-03-04T01:10:14;101784.94;;;2.56;98.81
2178;BME280;1095;50.992;6.798;2023-03-04T01:12:41;101780.84;;;2.52;98.63
2178;BME280;1095;50.992;6.798;2023-03-04T01:15:10;101787.69;;;2.53;98.83
2178;BME280;1095;50.992;6.798;2023-03-04T01:17:37;101784.41;;;2.49;98.74
2178;BME280;1095;50.992;6.798;2023-03-04T01:20:08;101787.69;;;2.53;98.70
2178;BME280;1095;50.992;6.798;2023-03-04T01:22:35;101786.69;;;2.55;98.40
2178;BME280;1095;50.992;6.798;2023-03-04T01:25:02;101779.00;;;2.54;98.84
2178;BME280;1095;50.992;6.798;2023-03-04T01:27:30;101779.00;;;2.54;97.93
2178;BME280;1095;50.992;6.798;2023-03-04T01:29:57;101772.94;;;2.55;98.33
2178;BME280;1095;50.992;6.798;2023-03-04T01:32:24;101778.19;;;2.53;97.91
2178;BME280;1095;50.992;6.798;2023-03-04T01:34:50;101766.56;;;2.62;97.57
2178;BME280;1095;50.992;6.798;2023-03-04T01:37:17;101759.09;;;2.56;97.31
2178;BME280;1095;50.992;6.798;2023-03-04T01:39:44;101764.97;;;2.59;97.89
2178;BME280;1095;50.992;6.798;2023-03-04T01:42:17;101764.28;;;2.56;97.49
2178;BME280;1095;50.992;6.798;2023-03-04T01:44:46;101763.28;;;2.58;97.18
2178;BME280;1095;50.992;6.798;2023-03-04T01:47:14;101760.84;;;2.55;97.08
2178;BME280;1095;50.992;6.798;2023-03-04T01:49:41;101754.69;;;2.58;97.39
2178;BME280;1095;50.992;6.798;2023-03-04T01:52:11;101755.31;;;2.63;97.30
2178;BME280;1095;50.992;6.798;2023-03-04T01:54:38;101753.41;;;2.66;97.13
2178;BME280;1095;50.992;6.798;2023-03-04T01:57:15;101744.97;;;2.63;97.11
2178;BME280;1095;50.992;6.798;2023-03-04T01:59:42;101755.31;;;2.63;97.05
2178;BME280;1095;50.992;6.798;2023-03-04T02:02:11;101739.88;;;2.61;97.10
2178;BME280;1095;50.992;6.798;2023-03-04T02:04:38;101743.75;;;2.70;96.95
2178;BME280;1095;50.992;6.798;2023-03-04T02:07:07;101738.66;;;2.69;97.18
2178;BME280;1095;50.992;6.798;2023-03-04T02:09:34;101736.06;;;2.69;96.96
2178;BME280;1095;50.992;6.798;2023-03-04T02:12:01;101730.81;;;2.70;96.34
2178;BME280;1095;50.992;6.798;2023-03-04T02:14:28;101730.91;;;2.69;96.74
2178;BME280;1095;50.992;6.798;2023-03-04T02:16:55;101734.91;;;2.74;97.01
2178;BME280;1095;50.992;6.798;2023-03-04T02:19:29;101734.00;;;2.75;96.33
2178;BME280;1095;50.992;6.798;2023-03-04T02:21:58;101730.13;;;2.66;97.11
2178;BME280;1095;50.992;6.798;2023-03-04T02:24:28;101731.88;;;2.66;97.14
2178;BME280;1095;50.992;6.798;2023-03-04T02:26:58;101725.13;;;2.63;96.97
2178;BME280;1095;50.992;6.798;2023-03-04T02:29:24;101731.66;;;2.71;96.78
2178;BME280;1095;50.992;6.798;2023-03-04T02:31:52;101729.22;;;2.67;97.01
2178;BME280;1095;50.992;6.798;2023-03-04T02:34:21;101729.16;;;2.69;96.77
2178;BME280;1095;50.992;6.798;2023-03-04T02:36:51;101726.72;;;2.66;97.05
2178;BME280;1095;50.992;6.798;2023-03-04T02:39:24;101730.91;;;2.69;96.98
2178;BME280;1095;50.992;6.798;2023-03-04T02:41:52;101724.59;;;2.74;96.96
2178;BME280;1095;50.992;6.798;2023-03-04T02:44:22;101732.50;;;2.71;96.97
2178;BME280;1095;50.992;6.798;2023-03-04T02:46:53;101728.09;;;2.73;97.10
2178;BME280;1095;50.992;6.798;2023-03-04T02:49:21;101723.97;;;2.69;97.03
2178;BME280;1095;50.992;6.798;2023-03-04T02:51:50;101722.38;;;2.66;96.65
2178;BME280;1095;50.992;6.798;2023-03-04T02:54:18;101716.22;;;2.69;96.93
2178;BME280;1095;50.992;6.798;2023-03-04T02:56:46;101717.06;;;2.70;97.63
2178;BME280;1095;50.992;6.798;2023-03-04T02:59:13;101721.25;;;2.72;97.09
2178;BME280;1095;50.992;6.798;2023-03-04T03:01:41;101714.84;;;2.79;97.03
2178;BME280;1095;50.992;6.798;2023-03-04T03:04:08;101719.25;;;2.77;97.10
2178;BME280;1095;50.992;6.798;2023-03-04T03:06:37;101708.16;;;2.75;97.07
2178;BME280;1095;50.992;6.798;2023-03-04T03:09:05;101709.69;;;2.79;96.79
2178;BME280;1095;50.992;6.798;2023-03-04T03:11:32;101712.72;;;2.70;97.27
2178;BME280;1095;50.992;6.798;2023-03-04T03:13:59;101701.56;;;2.70;97.24
2178;BME280;1095;50.992;6.798;2023-03-04T03:16:26;101706.03;;;2.66;97.23
2178;BME280;1095;50.992;6.798;2023-03-04T03:18:54;101708.16;;;2.75;97.20
2178;BME280;1095;50.992;6.798;2023-03-04T03:21:21;101696.91;;;2.76;97.10
2178;BME280;1095;50.992;6.798;2023-03-04T03:23:48;101701.91;;;2.79;97.42
2178;BME280;1095;50.992;6.798;2023-03-04T03:26:15;101699.66;;;2.73;96.77
2178;BME280;1095;50.992;6.798;2023-03-04T03:28:41;101691.66;;;2.78;97.43
2178;BME280;1095;50.992;6.798;2023-03-04T03:31:08;101696.84;;;2.78;97.09
2178;BME280;1095;50.992;6.798;2023-03-04T03:33:35;101698.34;;;2.82;97.42
2178;BME280;1095;50.992;6.798;2023-03-04T03:36:03;101695.91;;;2.79;96.82
2178;BME280;1095;50.992;6.798;2023-03-04T03:38:30;101697.97;;;2.72;97.25
2178;BME280;1095;50.992;6.798;2023-03-04T03:40:57;101690.91;;;2.76;97.40
2178;BME280;1095;50.992;6.798;2023-03-04T03:43:23;101690.75;;;2.79;97.19
2178;BME280;1095;50.992;6.798;2023-03-04T03:45:50;101690.31;;;2.86;96.99
2178;BME280;1095;50.992;6.798;2023-03-04T03:48:17;101690.06;;;2.91;97.01
2178;BME280;1095;50.992;6.798;2023-03-04T03:50:43;101687.56;;;2.89;96.46
2178;BME280;1095;50.992;6.798;2023-03-04T03:53:12;101685.75;;;2.91;96.21
2178;BME280;1095;50.992;6.798;2023-03-04T03:55:38;101690.00;;;2.92;96.19
2178;BME280;1095;50.992;6.798;2023-03-04T03:58:05;101683.25;;;2.90;95.84
2178;BME280;1095;50.992;6.798;2023-03-04T04:00:31;101677.59;;;2.83;95.81
2178;BME280;1095;50.992;6.798;2023-03-04T04:02:59;101687.91;;;2.83;96.37
2178;BME280;1095;50.992;6.798;2023-03-04T04:05:26;101689.09;;;2.93;96.33
2178;BME280;1095;50.992;6.798;2023-03-04T04:07:52;101679.06;;;2.87;96.49
2178;BME280;1095;50.992;6.798;2023-03-04T04:10:21;101676.41;;;2.89;96.44
2178;BME280;1095;50.992;6.798;2023-03-04T04:12:47;101693.50;;;2.91;96.60
2178;BME280;1095;50.992;6.798;2023-03-04T04:15:14;101684.22;;;2.87;96.54
2178;BME280;1095;50.992;6.798;2023-03-04T04:17:40;101688.72;;;2.84;96.34
2178;BME280;1095;50.992;6.798;2023-03-04T04:20:08;101689.09;;;2.93;96.37
2178;BME280;1095;50.992;6.798;2023-03-04T04:22:35;101682.25;;;2.92;96.34
2178;BME280;1095;50.992;6.798;2023-03-04T04:25:02;101693.84;;;3.01;96.37
2178;BME280;1095;50.992;6.798;2023-03-04T04:27:30;101695.28;;;3.07;95.91
2178;BME280;1095;50.992;6.798;2023-03-04T04:29:57;101682.69;;;3.16;95.16
2178;BME280;1095;50.992;6.798;2023-03-04T04:32:23;101685.28;;;3.16;95.15
2178;BME280;1095;50.992;6.798;2023-03-04T04:34:50;101684.44;;;3.16;94.65
2178;BME280;1095;50.992;6.798;2023-03-04T04:37:16;101688.03;;;3.29;94.01
2178;BME280;1095;50.992;6.798;2023-03-04T04:39:43;101679.44;;;3.28;93.66
2178;BME280;1095;50.992;6.798;2023-03-04T04:42:10;101685.63;;;3.26;93.18
2178;BME280;1095;50.992;6.798;2023-03-04T04:44:38;101682.44;;;3.37;93.28
2178;BME280;1095;50.992;6.798;2023-03-04T04:47:05;101685.94;;;3.36;92.57
2178;BME280;1095;50.992;6.798;2023-03-04T04:49:32;101686.94;;;3.33;92.80
2178;BME280;1095;50.992;6.798;2023-03-04T04:51:58;101686.94;;;3.33;92.43
2178;BME280;1095;50.992;6.798;2023-03-04T04:54:25;101688.78;;;3.31;93.02
2178;BME280;1095;50.992;6.798;2023-03-04T04:56:52;101691.09;;;3.36;93.00
2178;BME280;1095;50.992;6.798;2023-03-04T04:59:18;101681.28;;;3.26;93.24
2178;BME280;1095;50.992;6.798;2023-03-04T05:01:47;101688.22;;;3.26;93.23
2178;BME280;1095;50.992;6.798;2023-03-04T05:04:13;101689.28;;;3.22;93.50
2178;BME280;1095;50.992;6.798;2023-03-04T05:06:40;101682.53;;;3.19;93.93
2178;BME280;1095;50.992;6.798;2023-03-04T05:09:06;101684.19;;;3.20;93.89
2178;BME280;1095;50.992;6.798;2023-03-04T05:11:33;101683.38;;;3.20;94.24
2178;BME280;1095;50.992;6.798;2023-03-04T05:14:00;101690.13;;;3.22;93.99
2178;BME280;1095;50.992;6.798;2023-03-04T05:16:26;101694.13;;;3.28;94.08
2178;BME280;1095;50.992;6.798;2023-03-04T05:18:54;101685.47;;;3.29;94.44
2178;BME280;1095;50.992;6.798;2023-03-04T05:21:21;101683.97;;;3.25;94.02
2178;BME280;1095;50.992;6.798;2023-03-04T05:23:48;101688.03;;;3.29;94.15
2178;BME280;1095;50.992;6.798;2023-03-04T05:26:16;101682.38;;;3.22;94.45
2178;BME280;1095;50.992;6.798;2023-03-04T05:28:43;101680.19;;;3.15;94.35
2178;BME280;1095;50.992;6.798;2023-03-04T05:31:10;101680.94;;;3.17;94.60
2178;BME280;1095;50.992;6.798;2023-03-04T05:33:37;101693.31;;;3.27;94.23
2178;BME280;1095;50.992;6.798;2023-03-04T05:36:06;101683.03;;;3.26;94.50
2178;BME280;1095;50.992;6.798;2023-03-04T05:38:33;101692.31;;;3.30;94.00
2178;BME280;1095;50.992;6.798;2023-03-04T05:41:02;101676.13;;;3.26;94.39
2178;BME280;1095;50.992;6.798;2023-03-04T05:43:30;101699.03;;;3.32;94.24
2178;BME280;1095;50.992;6.798;2023-03-04T05:45:58;101696.28;;;3.36;93.85
2178;BME280;1095;50.992;6.798;2023-03-04T05:48:25;101695.44;;;3.35;94.11
2178;BME280;1095;50.992;6.798;2023-03-04T05:50:53;101697.78;;;3.40;94.22
2178;BME280;1095;50.992;6.798;2023-03-04T05:53:21;101711.38;;;3.43;93.65
2178;BME280;1095;50.992;6.798;2023-03-04T05:55:48;101699.53;;;3.39;93.12
2178;BME280;1095;50.992;6.798;2023-03-04T05:58:15;101701.72;;;3.47;93.43
2178;BME280;1095;50.992;6.798;2023-03-04T06:00:43;101711.47;;;3.42;93.42
2178;BME280;1095;50.992;6.798;2023-03-04T06:03:13;101706.97;;;3.45;93.60
2178;BME280;1095;50.992;6.798;2023-03-04T06:05:41;101709.88;;;3.39;93.06
2178;BME280;1095;50.992;6.798;2023-03-04T06:08:07;101715.66;;;3.44;93.51
2178;BME280;1095;50.992;6.798;2023-03-04T06:10:39;101715.81;;;3.41;93.30
2178;BME280;1095;50.992;6.798;2023-03-04T06:13:06;101710.88;;;3.37;93.68
2178;BME280;1095;50.992;6.798;2023-03-04T06:15:33;101714.81;;;3.44;93.05
2178;BME280;1095;50.992;6.798;2023-03-04T06:17:59;101711.31;;;3.45;92.69
2178;BME280;1095;50.992;6.798;2023-03-04T06:20:26;101712.16;;;3.45;92.93
2178;BME280;1095;50.992;6.798;2023-03-04T06:22:53;101709.97;;;3.53;93.01
2178;BME280;1095;50.992;6.798;2023-03-04T06:25:19;101716.81;;;3.54;92.91
2178;BME280;1095;50.992;6.798;2023-03-04T06:27:48;101720.16;;;3.56;92.95
2178;BME280;1095;50.992;6.798;2023-03-04T06:30:15;101713.06;;;3.60;93.07
2178;BME280;1095;50.992;6.798;2023-03-04T06:32:42;101716.91;;;3.53;93.70
2178;BME280;1095;50.992;6.798;2023-03-04T06:35:10;101717.81;;;3.52;93.70
2178;BME280;1095;50.992;6.798;2023-03-04T06:37:37;101722.91;;;3.53;93.91
2178;BME280;1095;50.992;6.798;2023-03-04T06:40:04;101729.59;;;3.57;93.96
2178;BME280;1095;50.992;6.798;2023-03-04T06:42:32;101732.25;;;3.56;94.18
2178;BME280;1095;50.992;6.798;2023-03-04T06:44:59;101735.53;;;3.59;94.14
2178;BME280;1095;50.992;6.798;2023-03-04T06:47:26;101730.50;;;3.56;93.52
2178;BME280;1095;50.992;6.798;2023-03-04T06:49:53;101734.78;;;3.57;93.58
2178;BME280;1095;50.992;6.798;2023-03-04T06:52:20;101746.72;;;3.60;93.62
2178;BME280;1095;50.992;6.798;2023-03-04T06:54:46;101745.72;;;3.62;93.20
2178;BME280;1095;50.992;6.798;2023-03-04T06:57:13;101749.13;;;3.63;93.82
2178;BME280;1095;50.992;6.798;2023-03-04T06:59:39;101741.19;;;3.66;93.46
2178;BME280;1095;50.992;6.798;2023-03-04T07:02:10;101743.78;;;3.66;93.52
2178;BME280;1095;50.992;6.798;2023-03-04T07:04:36;101746.53;;;3.63;93.69
2178;BME280;1095;50.992;6.798;2023-03-04T07:07:03;101745.22;;;3.72;93.00
2178;BME280;1095;50.992;6.798;2023-03-04T07:09:30;101749.69;;;3.84;92.34
2178;BME280;1095;50.992;6.798;2023-03-04T07:11:56;101748.75;;;3.85;90.63
2178;BME280;1095;50.992;6.798;2023-03-04T07:14:23;101745.16;;;3.87;90.25
2178;BME280;1095;50.992;6.798;2023-03-04T07:16:50;101728.78;;;3.87;90.91
2178;BME280;1095;50.992;6.798;2023-03-04T07:19:18;101744.00;;;3.93;90.73
2178;BME280;1095;50.992;6.798;2023-03-04T07:21:44;101730.28;;;3.91;90.85
2178;BME280;1095;50.992;6.798;2023-03-04T07:24:11;101743.06;;;3.94;90.78
2178;BME280;1095;50.992;6.798;2023-03-04T07:26:38;101742.72;;;4.00;90.95
2178;BME280;1095;50.992;6.798;2023-03-04T07:29:05;101750.94;;;3.92;91.33
2178;BME280;1095;50.992;6.798;2023-03-04T07:31:33;101757.19;;;3.88;91.15
2178;BME280;1095;50.992;6.798;2023-03-04T07:34:02;101756.34;;;3.88;91.07
2178;BME280;1095;50.992;6.798;2023-03-04T07:36:31;101750.66;;;3.97;92.02
2178;BME280;1095;50.992;6.798;2023-03-04T07:38:58;101755.00;;;3.96;91.47
2178;BME280;1095;50.992;6.798;2023-03-04T07:41:26;101759.03;;;4.02;92.17
2178;BME280;1095;50.992;6.798;2023-03-04T07:43:55;101759.84;;;4.03;91.83
2178;BME280;1095;50.992;6.798;2023-03-04T07:46:22;101755.50;;;4.03;91.70
2178;BME280;1095;50.992;6.798;2023-03-04T07:48:55;101754.59;;;4.04;91.63
2178;BME280;1095;50.992;6.798;2023-03-04T07:51:26;101756.00;;;4.10;91.41
2178;BME280;1095;50.992;6.798;2023-03-04T07:53:56;101757.34;;;4.01;91.54
2178;BME280;1095;50.992;6.798;2023-03-04T07:56:24;101757.75;;;4.09;91.92
2178;BME280;1095;50.992;6.798;2023-03-04T07:58:51;101770.28;;;4.17;91.74
2178;BME280;1095;50.992;6.798;2023-03-04T08:01:20;101762.34;;;4.20;91.97
2178;BME280;1095;50.992;6.798;2023-03-04T08:03:47;101762.06;;;4.24;91.91
2178;BME280;1095;50.992;6.798;2023-03-04T08:06:19;101757.06;;;4.21;91.72
2178;BME280;1095;50.992;6.798;2023-03-04T08:08:46;101760.19;;;4.26;91.72
2178;BME280;1095;50.992;6.798;2023-03-04T08:11:16;101757.81;;;4.38;91.12
2178;BME280;1095;50.992;6.798;2023-03-04T08:13:43;101756.72;;;4.42;91.30
2178;BME280;1095;50.992;6.798;2023-03-04T08:16:11;101757.38;;;4.45;91.17
2178;BME280;1095;50.992;6.798;2023-03-04T08:18:40;101763.97;;;4.51;91.27
2178;BME280;1095;50.992;6.798;2023-03-04T08:21:08;101767.59;;;4.48;91.00
2178;BME280;1095;50.992;6.798;2023-03-04T08:23:35;101765.56;;;4.53;90.60
2178;BME280;1095;50.992;6.798;2023-03-04T08:26:05;101762.34;;;4.64;90.53
2178;BME280;1095;50.992;6.798;2023-03-04T08:28:34;101760.75;;;4.61;91.24
2178;BME280;1095;50.992;6.798;2023-03-04T08:31:01;101764.38;;;4.59;91.44
2178;BME280;1095;50.992;6.798;2023-03-04T08:33:27;101779.38;;;4.68;91.95
2178;BME280;1095;50.992;6.798;2023-03-04T08:35:54;101769.03;;;4.68;91.72
2178;BME280;1095;50.992;6.798;2023-03-04T08:38:21;101783.47;;;4.86;91.76
2178;BME280;1095;50.992;6.798;2023-03-04T08:40:51;101783.22;;;5.05;91.51
2178;BME280;1095;50.992;6.798;2023-03-04T08:43:18;101787.47;;;5.20;91.86
2178;BME280;1095;50.992;6.798;2023-03-04T08:45:46;101785.59;;;5.22;91.53
2178;BME280;1095;50.992;6.798;2023-03-04T08:48:14;101783.03;;;5.08;91.36
2178;BME280;1095;50.992;6.798;2023-03-04T08:50:42;101786.06;;;5.29;91.37
2178;BME280;1095;50.992;6.798;2023-03-04T08:53:09;101786.72;;;5.32;91.70
2178;BME280;1095;50.992;6.798;2023-03-04T08:55:41;101785.41;;;5.40;91.94
2178;BME280;1095;50.992;6.798;2023-03-04T08:58:08;101794.03;;;5.40;92.70
2178;BME280;1095;50.992;6.798;2023-03-04T09:00:38;101795.88;;;5.38;93.67
2178;BME280;1095;50.992;6.798;2023-03-04T09:03:09;101785.81;;;5.19;93.77
2178;BME280;1095;50.992;6.798;2023-03-04T09:05:36;101785.03;;;5.31;94.21
2178;BME280;1095;50.992;6.798;2023-03-04T09:08:03;101782.25;;;5.49;94.51
2178;BME280;1095;50.992;6.798;2023-03-04T09:10:30;101782.53;;;5.58;93.54
2178;BME280;1095;50.992;6.798;2023-03-04T09:12:57;101769.75;;;5.82;92.95
2178;BME280;1095;50.992;6.798;2023-03-04T09:15:25;101761.66;;;6.01;92.02
2178;BME280;1095;50.992;6.798;2023-03-04T09:17:57;101771.56;;;6.21;91.02
2178;BME280;1095;50.992;6.798;2023-03-04T09:20:25;101763.78;;;6.34;90.08
2178;BME280;1095;50.992;6.798;2023-03-04T09:23:03;101764.56;;;6.49;89.17
2178;BME280;1095;50.992;6.798;2023-03-04T09:25:30;101769.97;;;6.46;88.12
2178;BME280;1095;50.992;6.798;2023-03-04T09:27:57;101758.53;;;6.48;87.09
2178;BME280;1095;50.992;6.798;2023-03-04T09:30:23;101760.19;;;6.49;86.69
2178;BME280;1095;50.992;6.798;2023-03-04T09:32:50;101763.25;;;6.29;86.16
2178;BME280;1095;50.992;6.798;2023-03-04T09:35:17;101754.53;;;6.30;86.08
2178;BME280;1095;50.992;6.798;2023-03-04T09:37:45;101756.44;;;6.41;86.09
2178;BME280;1095;50.992;6.798;2023-03-04T09:40:16;101748.13;;;6.48;85.93
2178;BME280;1095;50.992;6.798;2023-03-04T09:42:46;101753.00;;;6.65;85.46
2178;BME280;1095;50.992;6.798;2023-03-04T09:45:19;101758.00;;;6.69;84.63
2178;BME280;1095;50.992;6.798;2023-03-04T09:47:48;101760.81;;;6.78;85.03
2178;BME280;1095;50.992;6.798;2023-03-04T09:50:17;101749.75;;;6.37;85.06
2178;BME280;1095;50.992;6.798;2023-03-04T09:52:58;101754.28;;;6.08;85.88
2178;BME280;1095;50.992;6.798;2023-03-04T09:55:30;101753.44;;;6.07;86.32
2178;BME280;1095;50.992;6.798;2023-03-04T10:00:32;101765.63;;;6.19;87.15
2178;BME280;1095;50.992;6.798;2023-03-04T10:03:08;101757.44;;;6.25;87.10
2178;BME280;1095;50.992;6.798;2023-03-04T10:05:41;101762.63;;;6.25;87.35
2178;BME280;1095;50.992;6.798;2023-03-04T10:08:26;101759.97;;;6.40;87.82
2178;BME280;1095;50.992;6.798;2023-03-04T10:10:58;101761.63;;;6.41;88.60
2178;BME280;1095;50.992;6.798;2023-03-04T10:13:32;101752.56;;;6.33;88.72
2178;BME280;1095;50.992;6.798;2023-03-04T10:16:02;101754.59;;;6.03;89.33
2178;BME280;1095;50.992;6.798;2023-03-04T10:18:33;101758.34;;;6.12;90.15
2178;BME280;1095;50.992;6.798;2023-03-04T10:21:05;101763.78;;;6.34;91.87
2178;BME280;1095;50.992;6.798;2023-03-04T10:23:36;101762.88;;;6.35;91.33
2178;BME280;1095;50.992;6.798;2023-03-04T10:26:11;101757.56;;;6.62;90.79
2178;BME280;1095;50.992;6.798;2023-03-04T10:28:39;101756.88;;;6.60;89.36
2178;BME280;1095;50.992;6.798;2023-03-04T10:31:11;101754.38;;;6.71;89.67
2178;BME280;1095;50.992;6.798;2023-03-04T10:33:43;101744.16;;;6.68;89.36
2178;BME280;1095;50.992;6.798;2023-03-04T10:39:12;101739.69;;;7.08;87.59
2178;BME280;1095;50.992;6.798;2023-03-04T10:41:42;101738.75;;;6.96;87.13
2178;BME280;1095;50.992;6.798;2023-03-04T10:44:15;101734.38;;;6.84;87.41
2178;BME280;1095;50.992;6.798;2023-03-04T10:46:45;101730.97;;;6.84;87.35
2178;BME280;1095;50.992;6.798;2023-03-04T10:49:14;101726.38;;;6.87;87.08
2178;BME280;1095;50.992;6.798;2023-03-04T10:51:42;101734.19;;;7.00;86.75
2178;BME280;1095;50.992;6.798;2023-03-04T10:54:24;101720.66;;;6.95;86.26
2178;BME280;1095;50.992;6.798;2023-03-04T10:56:58;101722.34;;;7.20;86.32
2178;BME280;1095;50.992;6.798;2023-03-04T10:59:43;101713.63;;;7.21;85.50
2178;BME280;1095;50.992;6.798;2023-03-04T11:02:28;101717.94;;;6.96;85.89
2178;BME280;1095;50.992;6.798;2023-03-04T11:05:04;101727.72;;;6.80;86.17
2178;BME280;1095;50.992;6.798;2023-03-04T11:07:31;101719.63;;;6.59;86.53
2178;BME280;1095;50.992;6.798;2023-03-04T11:17:08;101682.66;;;6.92;85.64
2178;BME280;1095;50.992;6.798;2023-03-04T11:20:08;101691.66;;;7.12;84.85
2178;BME280;1095;50.992;6.798;2023-03-04T11:23:04;101687.19;;;7.14;84.81
2178;BME280;1095;50.992;6.798;2023-03-04T11:25:43;101679.84;;;6.95;84.74
2178;BME280;1095;50.992;6.798;2023-03-04T11:28:18;101697.56;;;6.78;85.11
2178;BME280;1095;50.992;6.798;2023-03-04T11:31:08;101676.56;;;6.55;85.83
2178;BME280;1095;50.992;6.798;2023-03-04T11:34:06;101690.50;;;6.54;86.42
2178;BME280;1095;50.992;6.798;2023-03-04T11:37:30;101708.91;;;6.77;86.80
2178;BME280;1095;50.992;6.798;2023-03-04T11:40:40;101686.22;;;6.66;86.80
2178;BME280;1095;50.992;6.798;2023-03-04T11:43:34;101689.84;;;6.63;86.93
2178;BME280;1095;50.992;6.798;2023-03-04T11:46:38;101692.13;;;6.81;86.61
2178;BME280;1095;50.992;6.798;2023-03-04T11:49:46;101671.13;;;6.71;85.97
2178;BME280;1095;50.992;6.798;2023-03-04T11:53:08;101675.50;;;6.83;85.19
2178;BME280;1095;50.992;6.798;2023-03-04T11:55:58;101657.47;;;6.93;84.51
2178;BME280;1095;50.992;6.798;2023-03-04T12:01:14;101632.47;;;7.27;83.11
2178;BME280;1095;50.992;6.798;2023-03-04T12:04:23;101646.47;;;7.61;82.85
2178;BME280;1095;50.992;6.798;2023-03-04T12:07:11;101622.91;;;7.86;81.96
2178;BME280;1095;50.992;6.798;2023-03-04T12:09:57;101638.47;;;8.21;80.95
2178;BME280;1095;50.992;6.798;2023-03-04T12:12:45;101611.28;;;8.37;79.98
2178;BME280;1095;50.992;6.798;2023-03-04T12:15:21;101632.09;;;8.25;79.84
2178;BME280;1095;50.992;6.798;2023-03-04T12:18:06;101618.44;;;7.99;80.46
2178;BME280;1095;50.992;6.798;2023-03-04T12:20:49;101627.31;;;7.97;80.76
2178;BME280;1095;50.992;6.798;2023-03-04T12:23:39;101633.31;;;7.86;81.04
2178;BME280;1095;50.992;6.798;2023-03-04T12:26:21;101631.84;;;7.71;81.31
2178;BME280;1095;50.992;6.798;2023-03-04T12:28:56;101621.25;;;7.50;81.81
2178;BME280;1095;50.992;6.798;2023-03-04T12:31:33;101616.47;;;7.44;82.20
2178;BME280;1095;50.992;6.798;2023-03-04T12:37:26;101610.81;;;7.50;83.05
2178;BME280;1095;50.992;6.798;2023-03-04T12:40:22;101613.66;;;7.58;82.98
2178;BME280;1095;50.992;6.798;2023-03-04T12:43:08;101606.13;;;7.66;83.09
2178;BME280;1095;50.992;6.798;2023-03-04T12:45:47;101609.16;;;7.84;82.41
2178;BME280;1095;50.992;6.798;2023-03-04T12:48:26;101604.34;;;8.02;82.07
2178;BME280;1095;50.992;6.798;2023-03-04T12:51:06;101592.72;;;7.95;81.36
2178;BME280;1095;50.992;6.798;2023-03-04T12:53:42;101583.81;;;7.86;81.33
2178;BME280;1095;50.992;6.798;2023-03-04T12:56:38;101575.38;;;7.83;81.30
2178;BME280;1095;50.992;6.798;2023-03-04T12:59:17;101591.84;;;7.83;81.49
2178;BME280;1095;50.992;6.798;2023-03-04T13:02:38;101589.88;;;7.98;81.85
2178;BME280;1095;50.992;6.798;2023-03-04T13:05:21;101569.28;;;8.17;80.41
2178;BME280;1095;50.992;6.798;2023-03-04T13:08:50;101562.25;;;8.07;80.18
2178;BME280;1095;50.992;6.798;2023-03-04T13:11:37;101571.50;;;8.11;79.79
2178;BME280;1095;50.992;6.798;2023-03-04T13:14:34;101544.38;;;8.13;79.82
2178;BME280;1095;50.992;6.798;2023-03-04T13:20:38;101540.81;;;7.92;79.93
2178;BME280;1095;50.992;6.798;2023-03-04T13:23:26;101556.69;;;7.89;80.56
2178;BME280;1095;50.992;6.798;2023-03-04T13:29:36;101565.44;;;7.88;81.27
2178;BME280;1095;50.992;6.798;2023-03-04T13:32:52;101557.88;;;7.96;81.74
2178;BME280;1095;50.992;6.798;2023-03-04T13:36:03;101542.00;;;7.88;82.04
2178;BME280;1095;50.992;6.798;2023-03-04T13:38:38;101531.47;;;7.89;82.17
2178;BME280;1095;50.992;6.798;2023-03-04T13:41:19;101559.88;;;8.04;82.30
2178;BME280;1095;50.992;6.798;2023-03-04T13:43:52;101546.88;;;8.15;81.90
2178;BME280;1095;50.992;6.798;2023-03-04T14:07:32;101530.00;;;7.28;86.15
2178;BME280;1095;50.992;6.798;2023-03-04T14:10:58;101511.72;;;7.06;86.28
2178;BME280;1095;50.992;6.798;2023-03-04T14:13:18;101514.09;;;7.09;86.27
2178;BME280;1095;50.992;6.798;2023-03-04T14:15:58;101522.69;;;7.09;86.36
2178;BME280;1095;50.992;6.798;2023-03-04T14:18:41;101504.66;;;7.19;86.29
2178;BME280;1095;50.992;6.798;2023-03-04T14:21:21;101530.31;;;7.47;86.44
2178;BME280;1095;50.992;6.798;2023-03-04T14:24:16;101528.06;;;7.43;86.04
2178;BME280;1095;50.992;6.798;2023-03-04T14:27:22;101513.44;;;7.29;86.04
2178;BME280;1095;50.992;6.798;2023-03-04T14:30:03;101515.78;;;7.21;86.49
2178;BME280;1095;50.992;6.798;2023-03-04T14:32:44;101504.41;;;7.22;86.16
2178;BME280;1095;50.992;6.798;2023-03-04T14:35:24;101505.59;;;7.18;86.45